createdAt,value
2023-01-02T00:01:48.445Z,10.79
2023-01-02T00:04:14.909Z,10.76
2023-01-02T00:06:41.357Z,10.77
2023-01-02T00:09:07.928Z,10.77
2023-01-02T00:11:34.489Z,10.83
2023-01-02T00:14:00.956Z,10.88
2023-01-02T00:16:27.449Z,10.85
2023-01-02T00:18:53.947Z,10.84
2023-01-02T00:21:20.409Z,10.75
2023-01-02T00:23:46.863Z,10.89
2023-01-02T00:26:13.321Z,10.89
2023-01-02T00:28:39.823Z,10.92
2023-01-02T00:31:10.797Z,10.80
2023-01-02T00:33:37.349Z,10.75
2023-01-02T00:36:07.517Z,10.83
2023-01-02T00:38:37.847Z,10.82
2023-01-02T00:41:04.870Z,10.79
2023-01-02T00:43:31.382Z,10.80
2023-01-02T00:45:58.063Z,10.75
2023-01-02T00:48:24.590Z,10.73
2023-01-02T00:50:51.084Z,10.70
2023-01-02T00:53:17.621Z,10.64
2023-01-02T00:55:44.806Z,10.69
2023-01-02T00:58:11.509Z,10.77
2023-01-02T01:00:38.057Z,10.83
2023-01-02T01:03:04.671Z,10.86
2023-01-02T01:05:31.206Z,10.93
2023-01-02T01:07:57.750Z,10.88
2023-01-02T01:10:24.892Z,10.90
2023-01-02T01:12:51.395Z,11.00
2023-01-02T01:15:17.961Z,11.05
2023-01-02T01:17:44.448Z,10.98
2023-01-02T01:20:11.324Z,11.01
2023-01-02T01:22:38.432Z,11.01
2023-01-02T01:25:05.241Z,11.05
2023-01-02T01:27:31.705Z,11.00
2023-01-02T01:29:58.177Z,10.95
2023-01-02T01:32:24.644Z,10.96
2023-01-02T01:34:51.110Z,10.97
2023-01-02T01:37:17.565Z,10.98
2023-01-02T01:39:44.028Z,10.98
2023-01-02T01:42:12.980Z,10.92
2023-01-02T01:44:50.331Z,10.89
2023-01-02T01:47:38.132Z,10.97
2023-01-02T01:50:09.084Z,10.91
2023-01-02T01:52:38.318Z,10.92
2023-01-02T01:55:17.668Z,10.94
2023-01-02T01:57:50.930Z,10.91
2023-01-02T02:00:17.520Z,10.87
2023-01-02T02:02:45.359Z,10.83
2023-01-02T02:05:12.272Z,10.86
2023-01-02T02:07:40.520Z,10.85
2023-01-02T02:10:08.507Z,10.89
2023-01-02T02:12:34.992Z,10.88
2023-01-02T02:15:01.479Z,10.86
2023-01-02T02:17:33.820Z,10.86
2023-01-02T02:20:26.113Z,10.79
2023-01-02T02:23:17.060Z,10.93
2023-01-02T02:25:55.437Z,10.97
2023-01-02T02:28:38.316Z,11.07
2023-01-02T02:31:29.580Z,11.06
2023-01-02T02:34:02.912Z,11.12
2023-01-02T02:36:40.874Z,11.18
2023-01-02T02:39:15.499Z,11.29
2023-01-02T02:41:59.556Z,11.30
2023-01-02T02:44:47.883Z,11.26
2023-01-02T02:47:22.255Z,11.16
2023-01-02T02:49:53.140Z,11.24
2023-01-02T02:52:41.430Z,11.19
2023-01-02T02:55:24.320Z,11.15
2023-01-02T02:57:50.841Z,11.16
2023-01-02T03:00:19.612Z,11.28
2023-01-02T03:02:46.577Z,11.30
2023-01-02T03:05:16.463Z,11.33
2023-01-02T03:07:46.667Z,11.38
2023-01-02T03:10:12.932Z,11.33
2023-01-02T03:13:09.945Z,11.27
2023-01-02T03:15:56.547Z,11.22
2023-01-02T03:18:35.833Z,11.15
2023-01-02T03:21:10.973Z,11.19
2023-01-02T03:23:48.763Z,11.12
2023-01-02T03:26:17.623Z,11.06
2023-01-02T03:28:46.216Z,11.04
2023-01-02T03:31:15.891Z,11.05
2023-01-02T03:33:44.436Z,10.98
2023-01-02T03:36:14.357Z,10.94
2023-01-02T03:38:44.357Z,10.98
2023-01-02T03:41:32.357Z,11.02
2023-01-02T03:43:58.860Z,11.03
2023-01-02T03:46:31.245Z,10.94
2023-01-02T03:49:02.339Z,10.94
2023-01-02T03:51:28.820Z,11.12
2023-01-02T03:53:55.307Z,11.14
2023-01-02T03:56:43.165Z,11.16
2023-01-02T03:59:14.383Z,11.02
2023-01-02T04:01:49.692Z,11.04
2023-01-02T04:04:20.240Z,11.02
2023-01-02T04:06:49.345Z,11.16
2023-01-02T04:09:26.833Z,11.19
2023-01-02T04:11:56.292Z,11.17
2023-01-02T04:14:32.901Z,11.31
2023-01-02T04:16:59.645Z,11.33
2023-01-02T04:19:27.747Z,11.39
2023-01-02T04:21:56.383Z,11.35
2023-01-02T04:24:26.989Z,11.34
2023-01-02T04:26:59.511Z,11.35
2023-01-02T04:29:26.058Z,11.28
2023-01-02T04:31:58.746Z,11.33
2023-01-02T04:34:25.304Z,11.36
2023-01-02T04:36:51.830Z,11.38
2023-01-02T04:39:18.982Z,11.41
2023-01-02T04:41:45.435Z,11.50
2023-01-02T04:44:11.923Z,11.40
2023-01-02T04:46:38.431Z,11.45
2023-01-02T04:49:04.948Z,11.55
2023-01-02T04:51:31.415Z,11.47
2023-01-02T04:53:57.877Z,11.39
2023-01-02T04:56:24.363Z,11.47
2023-01-02T04:58:50.917Z,11.58
2023-01-02T05:01:18.498Z,11.58
2023-01-02T05:03:46.965Z,11.55
2023-01-02T05:06:13.495Z,11.57
2023-01-02T05:08:39.976Z,11.52
2023-01-02T05:11:17.034Z,11.47
2023-01-02T05:13:43.659Z,11.37
2023-01-02T05:16:10.237Z,11.44
2023-01-02T05:18:36.851Z,11.37
2023-01-02T05:21:27.964Z,11.36
2023-01-02T05:23:54.957Z,11.36
2023-01-02T05:26:21.682Z,11.42
2023-01-02T05:28:48.154Z,11.40
2023-01-02T05:31:14.659Z,11.35
2023-01-02T05:33:41.193Z,11.41
2023-01-02T05:36:08.338Z,11.40
2023-01-02T05:38:34.898Z,11.36
2023-01-02T05:41:02.603Z,11.36
2023-01-02T05:43:36.594Z,11.27
2023-01-02T05:46:13.298Z,11.17
2023-01-02T05:48:40.044Z,11.06
2023-01-02T05:51:07.393Z,11.07
2023-01-02T05:53:33.982Z,11.02
2023-01-02T05:56:08.279Z,10.95
2023-01-02T05:58:35.241Z,10.93
2023-01-02T06:01:05.698Z,10.90
2023-01-02T06:03:32.269Z,10.75
2023-01-02T06:06:03.062Z,10.61
2023-01-02T06:08:29.529Z,10.56
2023-01-02T06:10:56.061Z,10.58
2023-01-02T06:13:22.531Z,10.56
2023-01-02T06:15:48.999Z,10.60
2023-01-02T06:18:15.466Z,10.57
2023-01-02T06:20:41.934Z,10.58
2023-01-02T06:23:08.404Z,10.59
2023-01-02T06:25:34.894Z,10.58
2023-01-02T06:28:01.377Z,10.59
2023-01-02T06:30:27.845Z,10.58
2023-01-02T06:32:55.916Z,10.57
2023-01-02T06:35:22.590Z,10.61
2023-01-02T06:37:49.055Z,10.57
2023-01-02T06:40:15.598Z,10.55
2023-01-02T06:42:45.234Z,10.47
2023-01-02T06:45:11.798Z,10.41
2023-01-02T06:47:38.279Z,10.41
2023-01-02T06:50:04.948Z,10.57
2023-01-02T06:52:31.421Z,10.62
2023-01-02T06:54:57.931Z,10.57
2023-01-02T06:57:24.397Z,10.55
2023-01-02T06:59:50.853Z,10.56
2023-01-02T07:02:17.398Z,10.63
2023-01-02T07:04:43.938Z,10.56
2023-01-02T07:07:10.410Z,10.50
2023-01-02T07:09:36.880Z,10.62
2023-01-02T07:12:04.124Z,10.54
2023-01-02T07:14:30.640Z,10.42
2023-01-02T07:16:57.189Z,10.40
2023-01-02T07:19:23.704Z,10.43
2023-01-02T07:21:50.202Z,10.41
2023-01-02T07:24:16.713Z,10.50
2023-01-02T07:26:43.203Z,10.57
2023-01-02T07:29:09.702Z,10.57
2023-01-02T07:31:36.198Z,10.66
2023-01-02T07:34:02.739Z,10.61
2023-01-02T07:36:29.215Z,10.54
2023-01-02T07:38:55.976Z,10.58
2023-01-02T07:41:23.951Z,10.71
2023-01-02T07:43:50.607Z,10.66
2023-01-02T07:46:18.119Z,10.89
2023-01-02T07:48:45.083Z,10.98
2023-01-02T07:51:11.789Z,11.02
2023-01-02T07:53:38.603Z,11.21
2023-01-02T07:56:05.348Z,11.39
2023-01-02T07:58:31.807Z,11.45
2023-01-02T08:01:05.148Z,11.59
2023-01-02T08:03:32.258Z,11.45
2023-01-02T08:06:09.073Z,11.43
2023-01-02T08:08:35.768Z,11.68
2023-01-02T08:11:13.332Z,11.69
2023-01-02T08:13:39.904Z,11.81
2023-01-02T08:16:17.235Z,11.71
2023-01-02T08:18:44.061Z,11.97
2023-01-02T08:21:10.783Z,11.98
2023-01-02T08:23:37.336Z,12.08
2023-01-02T08:26:07.834Z,11.98
2023-01-02T08:28:34.516Z,12.01
2023-01-02T08:31:01.084Z,11.90
2023-01-02T08:33:27.647Z,11.96
2023-01-02T08:35:54.161Z,12.13
2023-01-02T08:38:20.629Z,12.16
2023-01-02T08:40:47.134Z,12.05
2023-01-02T08:43:13.608Z,12.07
2023-01-02T08:45:40.579Z,12.14
2023-01-02T08:48:20.887Z,12.03
2023-01-02T08:50:48.803Z,12.02
2023-01-02T08:53:15.293Z,12.06
2023-01-02T08:55:41.764Z,11.97
2023-01-02T08:58:08.227Z,12.16
2023-01-02T09:00:34.733Z,12.13
2023-01-02T09:03:01.347Z,12.09
2023-01-02T09:05:30.868Z,12.07
2023-01-02T09:07:58.255Z,12.10
2023-01-02T09:10:24.875Z,12.19
2023-01-02T09:12:51.424Z,12.21
2023-01-02T09:15:17.941Z,12.17
2023-01-02T09:17:44.419Z,12.08
2023-01-02T09:20:11.006Z,12.06
2023-01-02T09:22:37.627Z,12.01
2023-01-02T09:25:04.778Z,12.08
2023-01-02T09:27:31.243Z,12.13
2023-01-02T09:29:57.695Z,12.06
2023-01-02T09:32:24.161Z,12.09
2023-01-02T09:34:50.826Z,12.08
2023-01-02T09:37:17.708Z,12.04
2023-01-02T09:39:44.226Z,12.15
2023-01-02T09:42:13.893Z,12.04
2023-01-02T09:44:43.330Z,12.03
2023-01-02T09:47:16.184Z,11.92
2023-01-02T09:49:53.189Z,11.88
2023-01-02T09:52:26.669Z,11.81
2023-01-02T09:54:53.166Z,11.82
2023-01-02T09:57:28.613Z,11.86
2023-01-02T10:00:15.807Z,11.73
2023-01-02T10:02:54.448Z,11.79
2023-01-02T10:05:49.154Z,11.62
2023-01-02T10:08:25.098Z,11.33
2023-01-02T10:11:03.392Z,11.31
2023-01-02T10:14:18.137Z,11.22
2023-01-02T10:16:41.905Z,11.21
2023-01-02T10:19:40.707Z,11.00
2023-01-02T10:22:09.733Z,10.99
2023-01-02T10:24:40.658Z,10.93
2023-01-02T10:27:11.836Z,10.87
2023-01-02T10:29:40.244Z,10.87
2023-01-02T10:32:15.039Z,10.80
2023-01-02T10:35:05.880Z,10.68
2023-01-02T10:37:32.391Z,10.67
2023-01-02T10:39:58.840Z,10.69
2023-01-02T10:42:25.312Z,10.66
2023-01-02T10:44:51.805Z,10.68
2023-01-02T10:47:33.475Z,10.76
2023-01-02T10:49:59.989Z,10.68
2023-01-02T10:53:06.079Z,10.67
2023-01-02T10:55:42.428Z,10.66
2023-01-02T10:58:26.409Z,10.61
2023-01-02T11:01:06.836Z,10.61
2023-01-02T11:03:33.539Z,10.64
2023-01-02T11:06:16.046Z,10.55
2023-01-02T11:08:55.093Z,10.50
2023-01-02T11:11:21.581Z,10.42
2023-01-02T11:13:54.148Z,10.50
2023-01-02T11:16:21.881Z,10.48
2023-01-02T11:18:53.100Z,10.47
2023-01-02T11:21:33.139Z,10.57
2023-01-02T11:24:01.394Z,10.53
2023-01-02T11:26:27.960Z,10.53
2023-01-02T11:28:54.602Z,10.53
2023-01-02T11:31:21.161Z,10.52
2023-01-02T11:33:47.658Z,10.52
2023-01-02T11:36:18.613Z,10.48
2023-01-02T11:38:56.514Z,10.49
2023-01-02T11:41:56.629Z,10.57
2023-01-02T11:44:41.810Z,10.45
2023-01-02T11:47:09.627Z,10.39
2023-01-02T11:49:48.710Z,10.32
2023-01-02T11:52:17.027Z,10.44
2023-01-02T11:54:56.632Z,10.27
2023-01-02T11:57:44.706Z,10.20
2023-01-02T12:00:12.949Z,10.20
2023-01-02T12:02:44.353Z,10.16
2023-01-02T12:05:15.636Z,10.18
2023-01-02T12:07:46.631Z,10.11
2023-01-02T12:10:40.529Z,10.16
2023-01-02T12:13:15.721Z,10.12
2023-01-02T12:15:57.894Z,10.02
2023-01-02T12:18:44.769Z,10.04
2023-01-02T12:21:17.330Z,9.94
2023-01-02T12:23:57.976Z,9.88
2023-01-02T12:26:28.552Z,9.95
2023-01-02T12:29:10.389Z,9.89
2023-01-02T12:31:55.168Z,9.86
2023-01-02T12:34:36.856Z,9.87
2023-01-02T12:37:24.274Z,9.76
2023-01-02T12:39:55.048Z,9.81
2023-01-02T12:42:36.734Z,9.83
2023-01-02T12:45:03.261Z,9.75
2023-01-02T12:47:35.645Z,9.72
2023-01-02T12:50:45.390Z,9.66
2023-01-02T12:53:33.592Z,9.70
2023-01-02T12:56:08.971Z,9.63
2023-01-02T12:58:57.510Z,9.75
2023-01-02T13:01:29.500Z,9.70
2023-01-02T13:04:00.697Z,9.68
2023-01-02T13:06:44.535Z,9.76
2023-01-02T13:09:23.813Z,9.65
2023-01-02T13:12:03.836Z,9.62
2023-01-02T13:14:33.641Z,9.61
2023-01-02T13:17:07.705Z,9.49
2023-01-02T13:19:36.560Z,9.44
2023-01-02T13:22:19.431Z,9.58
2023-01-02T13:24:45.896Z,9.54
2023-01-02T13:27:12.377Z,9.57
2023-01-02T13:29:43.315Z,9.53
2023-01-02T13:32:11.201Z,9.50
2023-01-02T13:34:40.922Z,9.51
2023-01-02T13:37:13.685Z,9.53
2023-01-02T13:39:39.974Z,9.47
2023-01-02T13:42:25.361Z,9.42
2023-01-02T13:44:53.341Z,9.58
2023-01-02T13:47:34.657Z,9.49
2023-01-02T13:50:23.080Z,9.47
2023-01-02T13:53:01.488Z,9.57
2023-01-02T13:55:41.112Z,9.50
2023-01-02T13:58:17.853Z,9.45
2023-01-02T14:00:53.495Z,9.46
2023-01-02T14:03:23.801Z,9.35
2023-01-02T14:06:01.389Z,9.33
2023-01-02T14:08:29.050Z,9.37
2023-01-02T14:11:13.483Z,9.34
2023-01-02T14:13:46.860Z,9.45
2023-01-02T14:16:22.372Z,9.31
2023-01-02T14:19:13.623Z,9.30
2023-01-02T14:21:42.947Z,9.29
2023-01-02T14:24:18.437Z,9.25
2023-01-02T14:26:45.416Z,9.28
2023-01-02T14:29:15.169Z,9.35
2023-01-02T14:31:41.634Z,9.20
2023-01-02T14:34:09.271Z,9.16
2023-01-02T14:36:44.278Z,9.18
2023-01-02T14:39:20.284Z,9.14
2023-01-02T14:42:08.393Z,9.18
2023-01-02T14:44:50.209Z,9.14
2023-01-02T14:47:19.166Z,9.03
2023-01-02T14:49:48.230Z,9.03
2023-01-02T14:52:25.624Z,9.02
2023-01-02T14:54:55.811Z,8.96
2023-01-02T14:57:29.869Z,8.90
2023-01-02T14:59:58.415Z,8.88
2023-01-02T15:02:30.243Z,8.97
2023-01-02T15:05:03.476Z,8.95
2023-01-02T15:07:31.826Z,8.90
2023-01-02T15:10:04.011Z,8.84
2023-01-02T15:12:50.556Z,8.91
2023-01-02T15:15:18.838Z,8.83
2023-01-02T15:17:46.343Z,8.81
2023-01-02T15:20:18.015Z,8.82
2023-01-02T15:22:45.364Z,8.83
2023-01-02T15:25:12.792Z,8.71
2023-01-02T15:27:41.000Z,8.74
2023-01-02T15:30:30.527Z,8.61
2023-01-02T15:32:56.991Z,8.59
2023-01-02T15:35:28.556Z,8.61
2023-01-02T15:37:55.223Z,8.58
2023-01-02T15:40:31.124Z,8.52
2023-01-02T15:43:21.853Z,8.45
2023-01-02T15:45:51.468Z,8.41
2023-01-02T15:48:22.015Z,8.45
2023-01-02T15:50:49.731Z,8.38
2023-01-02T15:53:29.729Z,8.46
2023-01-02T15:55:56.567Z,8.44
2023-01-02T15:58:22.889Z,8.33
2023-01-02T16:00:51.454Z,8.31
2023-01-02T16:04:01.832Z,8.27
2023-01-02T16:06:41.296Z,8.28
2023-01-02T16:09:15.315Z,8.29
2023-01-02T16:11:47.039Z,8.23
2023-01-02T16:14:21.980Z,8.36
2023-01-02T16:16:57.633Z,8.26
2023-01-02T16:19:32.229Z,8.26
2023-01-02T16:22:18.134Z,8.26
2023-01-02T16:24:47.921Z,8.10
2023-01-02T16:27:15.064Z,8.08
2023-01-02T16:29:42.897Z,8.13
2023-01-02T16:32:25.965Z,8.18
2023-01-02T16:35:19.829Z,8.08
2023-01-02T16:37:58.662Z,8.05
2023-01-02T16:40:59.902Z,8.10
2023-01-02T16:43:12.048Z,8.05
2023-01-02T16:45:38.943Z,8.10
2023-01-02T16:48:05.969Z,8.01
2023-01-02T16:50:41.537Z,8.02
2023-01-02T16:53:08.113Z,8.12
2023-01-02T16:55:34.762Z,8.12
2023-01-02T16:58:01.303Z,7.97
2023-01-02T17:00:27.775Z,7.87
2023-01-02T17:02:54.340Z,7.70
2023-01-02T17:05:27.528Z,7.59
2023-01-02T17:07:54.013Z,7.50
2023-01-02T17:10:21.023Z,7.52
2023-01-02T17:12:47.496Z,7.49
2023-01-02T17:15:14.801Z,7.57
2023-01-02T17:17:41.337Z,7.64
2023-01-02T17:20:09.478Z,7.54
2023-01-02T17:22:37.031Z,7.62
2023-01-02T17:25:04.192Z,7.74
2023-01-02T17:27:30.660Z,7.63
2023-01-02T17:29:57.146Z,7.63
2023-01-02T17:32:23.609Z,7.71
2023-01-02T17:34:50.390Z,7.70
2023-01-02T17:37:16.933Z,7.84
2023-01-02T17:39:44.107Z,7.77
2023-01-02T17:42:11.600Z,7.89
2023-01-02T17:44:38.411Z,7.81
2023-01-02T17:47:38.948Z,7.79
2023-01-02T17:49:51.381Z,7.84
2023-01-02T17:52:17.982Z,7.79
2023-01-02T17:54:44.787Z,7.72
2023-01-02T17:57:11.350Z,7.82
2023-01-02T17:59:38.820Z,7.87
2023-01-02T18:02:05.427Z,7.81
2023-01-02T18:04:31.994Z,7.76
2023-01-02T18:06:58.466Z,7.76
2023-01-02T18:09:24.964Z,7.76
2023-01-02T18:11:51.433Z,7.68
2023-01-02T18:14:23.249Z,7.73
2023-01-02T18:16:51.505Z,7.74
2023-01-02T18:19:20.950Z,7.74
2023-01-02T18:21:47.482Z,7.82
2023-01-02T18:24:24.179Z,7.77
2023-01-02T18:26:54.408Z,7.71
2023-01-02T18:29:21.981Z,7.76
2023-01-02T18:31:48.839Z,7.78
2023-01-02T18:34:47.243Z,7.72
2023-01-02T18:37:20.228Z,7.86
2023-01-02T18:39:46.683Z,7.74
2023-01-02T18:42:21.636Z,7.71
2023-01-02T18:44:49.714Z,7.69
2023-01-02T18:47:27.999Z,7.87
2023-01-02T18:50:08.080Z,7.74
2023-01-02T18:52:35.408Z,7.79
2023-01-02T18:55:10.944Z,7.73
2023-01-02T18:57:43.384Z,7.77
2023-01-02T19:00:21.606Z,7.76
2023-01-02T19:03:03.210Z,7.75
2023-01-02T19:05:38.350Z,7.78
2023-01-02T19:08:08.052Z,7.77
2023-01-02T19:10:38.782Z,7.82
2023-01-02T19:13:31.886Z,7.81
2023-01-02T19:16:02.522Z,7.72
2023-01-02T19:18:35.086Z,7.74
2023-01-02T19:21:29.217Z,7.74
2023-01-02T19:24:04.727Z,7.76
2023-01-02T19:26:38.603Z,7.74
2023-01-02T19:29:13.991Z,7.75
2023-01-02T19:31:46.488Z,7.74
2023-01-02T19:34:48.421Z,7.73
2023-01-02T19:37:46.693Z,7.59
2023-01-02T19:40:19.746Z,7.61
2023-01-02T19:42:47.767Z,7.60
2023-01-02T19:45:19.072Z,7.63
2023-01-02T19:47:45.796Z,7.55
2023-01-02T19:50:14.747Z,7.50
2023-01-02T19:52:41.268Z,7.47
2023-01-02T19:55:08.120Z,7.44
2023-01-02T19:57:34.821Z,7.32
2023-01-02T20:00:01.374Z,7.25
2023-01-02T20:02:28.108Z,7.20
2023-01-02T20:04:55.360Z,7.07
2023-01-02T20:07:22.709Z,7.04
2023-01-02T20:09:49.460Z,6.95
2023-01-02T20:12:34.012Z,6.87
2023-01-02T20:15:07.268Z,6.82
2023-01-02T20:17:34.229Z,6.93
2023-01-02T20:20:00.729Z,6.82
2023-01-02T20:22:28.033Z,6.79
2023-01-02T20:24:55.026Z,6.82
2023-01-02T20:27:21.609Z,6.79
2023-01-02T20:29:48.680Z,6.71
2023-01-02T20:32:15.171Z,6.84
2023-01-02T20:34:41.732Z,6.67
2023-01-02T20:37:08.220Z,6.60
2023-01-02T20:39:34.690Z,6.68
2023-01-02T20:42:01.156Z,6.74
2023-01-02T20:44:27.830Z,6.73
2023-01-02T20:46:56.212Z,6.74
2023-01-02T20:49:25.300Z,6.80
2023-01-02T20:51:55.718Z,6.80
2023-01-02T20:54:23.296Z,6.78
2023-01-02T20:56:49.765Z,6.86
2023-01-02T20:59:16.842Z,6.84
2023-01-02T21:01:44.278Z,6.85
2023-01-02T21:04:18.791Z,6.75
2023-01-02T21:06:52.063Z,6.73
2023-01-02T21:09:18.653Z,6.69
2023-01-02T21:11:47.898Z,6.76
2023-01-02T21:14:14.738Z,6.82
2023-01-02T21:16:41.591Z,6.84
2023-01-02T21:19:08.094Z,6.94
2023-01-02T21:21:34.692Z,6.89
2023-01-02T21:24:01.697Z,6.85
2023-01-02T21:26:28.300Z,6.93
2023-01-02T21:28:54.883Z,6.86
2023-01-02T21:31:21.643Z,6.83
2023-01-02T21:33:48.205Z,6.75
2023-01-02T21:36:15.578Z,6.82
2023-01-02T21:38:42.294Z,6.75
2023-01-02T21:41:27.343Z,6.72
2023-01-02T21:43:53.842Z,6.84
2023-01-02T21:46:20.377Z,6.83
2023-01-02T21:48:46.900Z,6.77
2023-01-02T21:51:13.736Z,6.81
2023-01-02T21:53:40.326Z,6.79
2023-01-02T21:56:06.985Z,6.69
2023-01-02T21:58:33.445Z,6.64
2023-01-02T22:00:59.966Z,6.78
2023-01-02T22:03:26.749Z,6.73
2023-01-02T22:05:53.787Z,6.67
2023-01-02T22:08:20.313Z,6.75
2023-01-02T22:10:48.768Z,6.71
2023-01-02T22:13:15.458Z,6.67
2023-01-02T22:15:41.971Z,6.74
2023-01-02T22:18:08.443Z,6.62
2023-01-02T22:20:35.138Z,6.64
2023-01-02T22:23:01.591Z,6.62
2023-01-02T22:25:28.051Z,6.59
2023-01-02T22:27:54.517Z,6.64
2023-01-02T22:30:27.511Z,6.55
2023-01-02T22:32:59.772Z,6.61
2023-01-02T22:35:26.251Z,6.58
2023-01-02T22:37:52.775Z,6.55
2023-01-02T22:40:20.237Z,6.57
2023-01-02T22:43:01.696Z,6.56
2023-01-02T22:45:30.506Z,6.64
2023-01-02T22:47:57.853Z,6.58
2023-01-02T22:50:26.349Z,6.74
2023-01-02T22:52:52.845Z,6.64
2023-01-02T22:55:20.496Z,6.57
2023-01-02T22:57:51.481Z,6.63
2023-01-02T23:00:19.531Z,6.56
2023-01-02T23:02:46.278Z,6.47
2023-01-02T23:05:20.543Z,6.50
2023-01-02T23:07:47.207Z,6.48
2023-01-02T23:10:13.828Z,6.52
2023-01-02T23:12:40.349Z,6.48
2023-01-02T23:15:07.853Z,6.55
2023-01-02T23:17:52.923Z,6.49
2023-01-02T23:20:19.413Z,6.49
2023-01-02T23:22:46.918Z,6.43
2023-01-02T23:25:14.642Z,6.42
2023-01-02T23:27:41.104Z,6.40
2023-01-02T23:30:08.007Z,6.44
2023-01-02T23:32:34.479Z,6.45
2023-01-02T23:35:00.970Z,6.48
2023-01-02T23:37:27.449Z,6.43
2023-01-02T23:39:53.968Z,6.37
2023-01-02T23:42:20.499Z,6.49
2023-01-02T23:44:47.105Z,6.38
2023-01-02T23:47:18.926Z,6.41
2023-01-02T23:49:45.857Z,6.35
2023-01-02T23:52:12.409Z,6.22
2023-01-02T23:54:38.921Z,6.31
2023-01-02T23:57:05.484Z,6.19
2023-01-02T23:59:32.012Z,6.17
